sensor_id;sensor_type;location;lat;lon;timestamp;temperature;humidity
73149;SHT30;61346;48.930;2.266;2022-09-17T00:02:12;13.02;59.01
73149;SHT30;61346;48.930;2.266;2022-09-17T00:04:38;12.97;59.10
73149;SHT30;61346;48.930;2.266;2022-09-17T00:07:03;12.95;59.16
73149;SHT30;61346;48.930;2.266;2022-09-17T00:09:28;12.92;59.20
73149;SHT30;61346;48.930;2.266;2022-09-17T00:11:55;12.89;59.22
73149;SHT30;61346;48.930;2.266;2022-09-17T00:14:21;12.86;59.40
73149;SHT30;61346;48.930;2.266;2022-09-17T00:16:47;12.86;59.30
73149;SHT30;61346;48.930;2.266;2022-09-17T00:19:18;12.82;59.55
73149;SHT30;61346;48.930;2.266;2022-09-17T00:21:45;12.79;59.65
73149;SHT30;61346;48.930;2.266;2022-09-17T00:24:12;12.76;59.77
73149;SHT30;61346;48.930;2.266;2022-09-17T00:26:38;12.75;59.81
73149;SHT30;61346;48.930;2.266;2022-09-17T00:29:04;12.76;59.87
73149;SHT30;61346;48.930;2.266;2022-09-17T00:31:30;12.72;59.88
73149;SHT30;61346;48.930;2.266;2022-09-17T00:33:56;12.71;59.95
73149;SHT30;61346;48.930;2.266;2022-09-17T00:36:22;12.71;59.96
73149;SHT30;61346;48.930;2.266;2022-09-17T00:38:51;12.68;60.11
73149;SHT30;61346;48.930;2.266;2022-09-17T00:41:18;12.64;60.10
73149;SHT30;61346;48.930;2.266;2022-09-17T00:43:49;12.62;60.16
73149;SHT30;61346;48.930;2.266;2022-09-17T00:49:02;12.59;60.38
73149;SHT30;61346;48.930;2.266;2022-09-17T00:51:42;12.58;60.41
73149;SHT30;61346;48.930;2.266;2022-09-17T00:54:10;12.58;60.49
73149;SHT30;61346;48.930;2.266;2022-09-17T00:56:38;12.55;60.45
73149;SHT30;61346;48.930;2.266;2022-09-17T00:59:05;12.57;60.56
73149;SHT30;61346;48.930;2.266;2022-09-17T01:01:31;12.54;60.64
73149;SHT30;61346;48.930;2.266;2022-09-17T01:03:57;12.50;60.65
73149;SHT30;61346;48.930;2.266;2022-09-17T01:07:09;12.50;60.82
73149;SHT30;61346;48.930;2.266;2022-09-17T01:13:02;12.44;60.95
73149;SHT30;61346;48.930;2.266;2022-09-17T01:15:46;12.44;61.05
73149;SHT30;61346;48.930;2.266;2022-09-17T01:18:40;12.40;61.06
73149;SHT30;61346;48.930;2.266;2022-09-17T01:29:54;12.34;61.47
73149;SHT30;61346;48.930;2.266;2022-09-17T01:32:41;12.31;61.52
73149;SHT30;61346;48.930;2.266;2022-09-17T01:35:17;12.33;61.47
73149;SHT30;61346;48.930;2.266;2022-09-17T01:41:04;12.33;61.66
73149;SHT30;61346;48.930;2.266;2022-09-17T01:46:19;12.30;61.65
73149;SHT30;61346;48.930;2.266;2022-09-17T01:48:49;12.29;61.81
73149;SHT30;61346;48.930;2.266;2022-09-17T01:51:19;12.27;61.86
73149;SHT30;61346;48.930;2.266;2022-09-17T01:54:00;12.29;61.89
73149;SHT30;61346;48.930;2.266;2022-09-17T01:56:34;12.23;61.91
73149;SHT30;61346;48.930;2.266;2022-09-17T01:59:10;12.21;61.89
73149;SHT30;61346;48.930;2.266;2022-09-17T02:01:39;12.21;61.91
73149;SHT30;61346;48.930;2.266;2022-09-17T02:04:14;12.16;61.98
73149;SHT30;61346;48.930;2.266;2022-09-17T02:06:44;12.19;62.09
73149;SHT30;61346;48.930;2.266;2022-09-17T02:09:21;12.14;62.17
73149;SHT30;61346;48.930;2.266;2022-09-17T02:11:59;12.13;62.24
73149;SHT30;61346;48.930;2.266;2022-09-17T02:14:35;12.13;62.31
73149;SHT30;61346;48.930;2.266;2022-09-17T02:17:12;12.13;62.28
73149;SHT30;61346;48.930;2.266;2022-09-17T02:19:40;12.10;62.35
73149;SHT30;61346;48.930;2.266;2022-09-17T02:27:11;12.06;62.65
73149;SHT30;61346;48.930;2.266;2022-09-17T02:29:41;12.06;62.63
73149;SHT30;61346;48.930;2.266;2022-09-17T02:32:08;12.04;62.58
73149;SHT30;61346;48.930;2.266;2022-09-17T02:34:33;12.06;62.66
73149;SHT30;61346;48.930;2.266;2022-09-17T02:36:59;12.03;62.68
73149;SHT30;61346;48.930;2.266;2022-09-17T02:39:26;12.04;62.71
73149;SHT30;61346;48.930;2.266;2022-09-17T02:53:51;12.04;62.84
73149;SHT30;61346;48.930;2.266;2022-09-17T02:56:48;12.06;62.94
73149;SHT30;61346;48.930;2.266;2022-09-17T03:02:04;12.07;62.89
73149;SHT30;61346;48.930;2.266;2022-09-17T03:04:32;12.10;62.86
73149;SHT30;61346;48.930;2.266;2022-09-17T03:06:59;12.10;62.93
73149;SHT30;61346;48.930;2.266;2022-09-17T03:09:30;12.10;62.99
73149;SHT30;61346;48.930;2.266;2022-09-17T03:11:55;12.09;63.02
73149;SHT30;61346;48.930;2.266;2022-09-17T03:14:21;12.07;63.02
73149;SHT30;61346;48.930;2.266;2022-09-17T03:16:46;12.07;62.97
73149;SHT30;61346;48.930;2.266;2022-09-17T03:19:12;12.04;62.97
73149;SHT30;61346;48.930;2.266;2022-09-17T03:21:37;12.04;62.95
73149;SHT30;61346;48.930;2.266;2022-09-17T03:24:03;12.02;63.01
73149;SHT30;61346;48.930;2.266;2022-09-17T03:26:28;11.97;63.08
73149;SHT30;61346;48.930;2.266;2022-09-17T03:28:54;11.93;63.13
73149;SHT30;61346;48.930;2.266;2022-09-17T03:31:19;11.92;63.20
73149;SHT30;61346;48.930;2.266;2022-09-17T03:33:44;11.89;63.19
73149;SHT30;61346;48.930;2.266;2022-09-17T03:36:10;11.89;63.26
73149;SHT30;61346;48.930;2.266;2022-09-17T03:38:35;11.83;63.30
73149;SHT30;61346;48.930;2.266;2022-09-17T03:41:05;11.81;63.45
73149;SHT30;61346;48.930;2.266;2022-09-17T03:43:31;11.79;63.44
73149;SHT30;61346;48.930;2.266;2022-09-17T03:45:57;11.78;63.50
73149;SHT30;61346;48.930;2.266;2022-09-17T03:48:22;11.76;63.52
73149;SHT30;61346;48.930;2.266;2022-09-17T03:50:48;11.76;63.51
73149;SHT30;61346;48.930;2.266;2022-09-17T03:53:14;11.74;63.57
73149;SHT30;61346;48.930;2.266;2022-09-17T03:55:40;11.72;63.54
73149;SHT30;61346;48.930;2.266;2022-09-17T03:58:05;11.71;63.64
73149;SHT30;61346;48.930;2.266;2022-09-17T04:00:31;11.65;63.70
73149;SHT30;61346;48.930;2.266;2022-09-17T04:02:57;11.64;63.65
73149;SHT30;61346;48.930;2.266;2022-09-17T04:05:22;11.64;63.63
73149;SHT30;61346;48.930;2.266;2022-09-17T04:07:48;11.62;63.82
73149;SHT30;61346;48.930;2.266;2022-09-17T04:10:14;11.64;63.86
73149;SHT30;61346;48.930;2.266;2022-09-17T04:12:39;11.58;63.95
73149;SHT30;61346;48.930;2.266;2022-09-17T04:15:05;11.57;64.01
73149;SHT30;61346;48.930;2.266;2022-09-17T04:17:31;11.57;64.02
73149;SHT30;61346;48.930;2.266;2022-09-17T04:19:56;11.54;64.10
73149;SHT30;61346;48.930;2.266;2022-09-17T04:22:23;11.51;64.12
73149;SHT30;61346;48.930;2.266;2022-09-17T04:24:48;11.50;64.12
73149;SHT30;61346;48.930;2.266;2022-09-17T04:27:13;11.48;64.25
73149;SHT30;61346;48.930;2.266;2022-09-17T04:29:39;11.47;64.15
73149;SHT30;61346;48.930;2.266;2022-09-17T04:32:04;11.45;64.28
73149;SHT30;61346;48.930;2.266;2022-09-17T04:34:30;11.42;64.42
73149;SHT30;61346;48.930;2.266;2022-09-17T04:36:56;11.42;64.35
73149;SHT30;61346;48.930;2.266;2022-09-17T04:39:21;11.41;64.53
73149;SHT30;61346;48.930;2.266;2022-09-17T04:41:46;11.39;64.56
73149;SHT30;61346;48.930;2.266;2022-09-17T04:44:12;11.37;64.54
73149;SHT30;61346;48.930;2.266;2022-09-17T04:46:37;11.35;64.64
73149;SHT30;61346;48.930;2.266;2022-09-17T04:49:03;11.32;64.69
73149;SHT30;61346;48.930;2.266;2022-09-17T04:51:28;11.32;64.82
73149;SHT30;61346;48.930;2.266;2022-09-17T04:53:54;11.28;64.84
73149;SHT30;61346;48.930;2.266;2022-09-17T04:56:19;11.30;64.82
73149;SHT30;61346;48.930;2.266;2022-09-17T04:58:44;11.27;64.86
73149;SHT30;61346;48.930;2.266;2022-09-17T05:01:10;11.23;64.87
73149;SHT30;61346;48.930;2.266;2022-09-17T05:03:37;11.23;64.97
73149;SHT30;61346;48.930;2.266;2022-09-17T05:06:03;11.23;64.98
73149;SHT30;61346;48.930;2.266;2022-09-17T05:08:28;11.19;65.10
73149;SHT30;61346;48.930;2.266;2022-09-17T05:10:54;11.14;65.13
73149;SHT30;61346;48.930;2.266;2022-09-17T05:13:20;11.13;65.17
73149;SHT30;61346;48.930;2.266;2022-09-17T05:15:46;11.11;65.20
73149;SHT30;61346;48.930;2.266;2022-09-17T05:18:11;11.09;65.26
73149;SHT30;61346;48.930;2.266;2022-09-17T05:20:37;11.09;65.28
73149;SHT30;61346;48.930;2.266;2022-09-17T05:23:03;11.06;65.28
73149;SHT30;61346;48.930;2.266;2022-09-17T05:25:28;11.06;65.43
73149;SHT30;61346;48.930;2.266;2022-09-17T05:27:53;11.01;65.47
73149;SHT30;61346;48.930;2.266;2022-09-17T05:30:20;11.01;65.54
73149;SHT30;61346;48.930;2.266;2022-09-17T05:32:46;11.00;65.64
73149;SHT30;61346;48.930;2.266;2022-09-17T05:35:11;11.00;65.62
73149;SHT30;61346;48.930;2.266;2022-09-17T05:37:37;10.97;65.61
73149;SHT30;61346;48.930;2.266;2022-09-17T05:47:00;11.03;65.78
73149;SHT30;61346;48.930;2.266;2022-09-17T05:59:42;11.00;66.04
73149;SHT30;61346;48.930;2.266;2022-09-17T06:02:56;11.04;66.08
73149;SHT30;61346;48.930;2.266;2022-09-17T06:08:36;11.06;66.04
73149;SHT30;61346;48.930;2.266;2022-09-17T06:24:47;11.20;66.17
73149;SHT30;61346;48.930;2.266;2022-09-17T06:30:41;11.24;66.18
73149;SHT30;61346;48.930;2.266;2022-09-17T06:33:23;11.26;66.18
73149;SHT30;61346;48.930;2.266;2022-09-17T06:36:01;11.28;66.11
73149;SHT30;61346;48.930;2.266;2022-09-17T06:38:34;11.34;66.08
73149;SHT30;61346;48.930;2.266;2022-09-17T06:41:10;11.37;66.10
73149;SHT30;61346;48.930;2.266;2022-09-17T06:43:39;11.38;66.09
73149;SHT30;61346;48.930;2.266;2022-09-17T06:46:22;11.44;66.13
73149;SHT30;61346;48.930;2.266;2022-09-17T06:51:49;11.48;66.13
73149;SHT30;61346;48.930;2.266;2022-09-17T06:54:43;11.52;66.16
73149;SHT30;61346;48.930;2.266;2022-09-17T07:04:07;11.64;66.13
73149;SHT30;61346;48.930;2.266;2022-09-17T07:06:33;11.68;66.17
73149;SHT30;61346;48.930;2.266;2022-09-17T07:08:58;11.71;66.16
73149;SHT30;61346;48.930;2.266;2022-09-17T07:11:23;11.75;66.08
73149;SHT30;61346;48.930;2.266;2022-09-17T07:13:49;11.78;65.92
73149;SHT30;61346;48.930;2.266;2022-09-17T07:16:14;11.83;65.93
73149;SHT30;61346;48.930;2.266;2022-09-17T07:18:40;11.89;65.94
73149;SHT30;61346;48.930;2.266;2022-09-17T07:21:05;11.94;65.89
73149;SHT30;61346;48.930;2.266;2022-09-17T07:23:33;12.00;65.82
73149;SHT30;61346;48.930;2.266;2022-09-17T07:26:02;12.07;65.77
73149;SHT30;61346;48.930;2.266;2022-09-17T07:28:27;12.14;65.70
73149;SHT30;61346;48.930;2.266;2022-09-17T07:30:54;12.21;65.56
73149;SHT30;61346;48.930;2.266;2022-09-17T07:33:25;12.30;65.45
73149;SHT30;61346;48.930;2.266;2022-09-17T07:35:59;12.34;65.37
73149;SHT30;61346;48.930;2.266;2022-09-17T07:38:27;12.44;65.31
73149;SHT30;61346;48.930;2.266;2022-09-17T07:41:04;12.54;65.13
73149;SHT30;61346;48.930;2.266;2022-09-17T07:43:34;12.64;65.01
73149;SHT30;61346;48.930;2.266;2022-09-17T07:46:02;12.69;64.90
73149;SHT30;61346;48.930;2.266;2022-09-17T07:48:31;12.79;64.72
73149;SHT30;61346;48.930;2.266;2022-09-17T07:50:57;12.86;64.62
73149;SHT30;61346;48.930;2.266;2022-09-17T07:53:23;12.97;64.50
73149;SHT30;61346;48.930;2.266;2022-09-17T07:58:19;13.17;64.13
73149;SHT30;61346;48.930;2.266;2022-09-17T08:00:44;13.26;63.95
73149;SHT30;61346;48.930;2.266;2022-09-17T08:03:10;13.37;63.83
73149;SHT30;61346;48.930;2.266;2022-09-17T08:05:35;13.44;63.61
73149;SHT30;61346;48.930;2.266;2022-09-17T08:08:01;13.51;63.30
73149;SHT30;61346;48.930;2.266;2022-09-17T08:10:26;13.61;63.11
73149;SHT30;61346;48.930;2.266;2022-09-17T08:12:56;13.65;62.92
73149;SHT30;61346;48.930;2.266;2022-09-17T08:15:22;13.74;62.82
73149;SHT30;61346;48.930;2.266;2022-09-17T08:17:48;13.81;62.71
73149;SHT30;61346;48.930;2.266;2022-09-17T08:20:15;13.88;62.50
73149;SHT30;61346;48.930;2.266;2022-09-17T08:22:41;13.95;62.31
73149;SHT30;61346;48.930;2.266;2022-09-17T08:25:08;14.02;62.15
73149;SHT30;61346;48.930;2.266;2022-09-17T08:27:34;14.10;62.02
73149;SHT30;61346;48.930;2.266;2022-09-17T08:30:02;14.19;61.89
73149;SHT30;61346;48.930;2.266;2022-09-17T08:32:30;14.23;61.72
73149;SHT30;61346;48.930;2.266;2022-09-17T08:34:55;14.33;61.67
73149;SHT30;61346;48.930;2.266;2022-09-17T08:37:21;14.40;61.59
73149;SHT30;61346;48.930;2.266;2022-09-17T08:39:47;14.47;61.50
73149;SHT30;61346;48.930;2.266;2022-09-17T08:42:36;14.51;61.35
73149;SHT30;61346;48.930;2.266;2022-09-17T08:45:07;14.57;61.30
73149;SHT30;61346;48.930;2.266;2022-09-17T08:47:36;14.65;61.23
73149;SHT30;61346;48.930;2.266;2022-09-17T08:50:05;14.70;61.19
73149;SHT30;61346;48.930;2.266;2022-09-17T09:06:12;15.13;60.85
73149;SHT30;61346;48.930;2.266;2022-09-17T09:08:48;15.22;60.83
73149;SHT30;61346;48.930;2.266;2022-09-17T09:11:23;15.27;60.73
73149;SHT30;61346;48.930;2.266;2022-09-17T09:14:17;15.33;60.62
73149;SHT30;61346;48.930;2.266;2022-09-17T09:16:44;15.50;60.59
73149;SHT30;61346;48.930;2.266;2022-09-17T09:19:31;15.61;60.44
73149;SHT30;61346;48.930;2.266;2022-09-17T09:22:03;15.75;60.24
73149;SHT30;61346;48.930;2.266;2022-09-17T09:24:40;15.84;60.12
73149;SHT30;61346;48.930;2.266;2022-09-17T09:30:03;16.06;59.55
73149;SHT30;61346;48.930;2.266;2022-09-17T09:32:42;16.15;59.32
73149;SHT30;61346;48.930;2.266;2022-09-17T09:35:22;16.25;59.25
73149;SHT30;61346;48.930;2.266;2022-09-17T09:38:13;16.42;59.20
73149;SHT30;61346;48.930;2.266;2022-09-17T09:40:43;16.53;58.99
73149;SHT30;61346;48.930;2.266;2022-09-17T09:43:16;16.64;58.98
73149;SHT30;61346;48.930;2.266;2022-09-17T09:46:08;16.75;58.68
73149;SHT30;61346;48.930;2.266;2022-09-17T09:48:50;16.83;58.45
73149;SHT30;61346;48.930;2.266;2022-09-17T09:57:09;16.83;57.64
73149;SHT30;61346;48.930;2.266;2022-09-17T09:59:36;16.89;57.48
73149;SHT30;61346;48.930;2.266;2022-09-17T10:02:02;16.96;57.02
73149;SHT30;61346;48.930;2.266;2022-09-17T10:04:28;16.96;57.02
73149;SHT30;61346;48.930;2.266;2022-09-17T10:07:00;16.98;56.86
73149;SHT30;61346;48.930;2.266;2022-09-17T10:09:28;17.04;56.39
73149;SHT30;61346;48.930;2.266;2022-09-17T10:14:38;17.26;56.37
73149;SHT30;61346;48.930;2.266;2022-09-17T10:17:15;17.45;56.19
73149;SHT30;61346;48.930;2.266;2022-09-17T10:19:42;17.74;56.27
73149;SHT30;61346;48.930;2.266;2022-09-17T10:22:28;17.98;55.83
73149;SHT30;61346;48.930;2.266;2022-09-17T10:24:55;18.06;55.43
73149;SHT30;61346;48.930;2.266;2022-09-17T10:27:23;18.00;54.31
73149;SHT30;61346;48.930;2.266;2022-09-17T10:32:32;17.91;54.11
73149;SHT30;61346;48.930;2.266;2022-09-17T10:37:49;18.25;54.46
73149;SHT30;61346;48.930;2.266;2022-09-17T10:42:47;18.33;53.39
73149;SHT30;61346;48.930;2.266;2022-09-17T10:45:27;18.22;52.83
73149;SHT30;61346;48.930;2.266;2022-09-17T11:04:40;18.57;50.90
73149;SHT30;61346;48.930;2.266;2022-09-17T11:34:07;19.29;48.64
73149;SHT30;61346;48.930;2.266;2022-09-17T11:40:13;19.39;48.37
73149;SHT30;61346;48.930;2.266;2022-09-17T11:43:25;19.46;48.48
73149;SHT30;61346;48.930;2.266;2022-09-17T11:46:17;19.44;48.42
73149;SHT30;61346;48.930;2.266;2022-09-17T11:49:12;19.70;49.02
73149;SHT30;61346;48.930;2.266;2022-09-17T11:51:50;20.08;48.86
73149;SHT30;61346;48.930;2.266;2022-09-17T11:54:44;21.15;50.59
73149;SHT30;61346;48.930;2.266;2022-09-17T11:57:16;22.09;48.21
73149;SHT30;61346;48.930;2.266;2022-09-17T12:06:01;21.90;44.30
73149;SHT30;61346;48.930;2.266;2022-09-17T12:08:30;21.41;44.30
73149;SHT30;61346;48.930;2.266;2022-09-17T12:14:43;20.51;44.15
73149;SHT30;61346;48.930;2.266;2022-09-17T12:17:36;20.35;44.01
73149;SHT30;61346;48.930;2.266;2022-09-17T12:23:50;20.79;44.69
73149;SHT30;61346;48.930;2.266;2022-09-17T12:26:37;21.11;43.98
73149;SHT30;61346;48.930;2.266;2022-09-17T12:57:10;20.77;43.31
73149;SHT30;61346;48.930;2.266;2022-09-17T12:59:29;20.99;43.81
73149;SHT30;61346;48.930;2.266;2022-09-17T13:02:54;21.20;43.61
73149;SHT30;61346;48.930;2.266;2022-09-17T13:19:29;23.53;39.74
73149;SHT30;61346;48.930;2.266;2022-09-17T13:57:43;22.54;38.30
73149;SHT30;61346;48.930;2.266;2022-09-17T17:51:32;18.02;38.13
73149;SHT30;61346;48.930;2.266;2022-09-17T21:11:05;14.43;48.49
73149;SHT30;61346;48.930;2.266;2022-09-17T21:14:19;14.41;48.63
73149;SHT30;61346;48.930;2.266;2022-09-17T21:36:14;14.20;49.50
73149;SHT30;61346;48.930;2.266;2022-09-17T21:38:40;14.17;49.61
73149;SHT30;61346;48.930;2.266;2022-09-17T21:41:09;14.16;49.65
73149;SHT30;61346;48.930;2.266;2022-09-17T21:43:35;14.12;49.80
73149;SHT30;61346;48.930;2.266;2022-09-17T21:46:15;14.09;49.83
73149;SHT30;61346;48.930;2.266;2022-09-17T21:48:45;14.09;49.89
73149;SHT30;61346;48.930;2.266;2022-09-17T21:51:13;14.05;49.97
73149;SHT30;61346;48.930;2.266;2022-09-17T21:53:40;14.05;50.03
73149;SHT30;61346;48.930;2.266;2022-09-17T21:56:11;14.05;50.14
73149;SHT30;61346;48.930;2.266;2022-09-17T21:58:37;14.02;50.18
73149;SHT30;61346;48.930;2.266;2022-09-17T22:01:10;14.01;50.22
73149;SHT30;61346;48.930;2.266;2022-09-17T22:03:37;14.01;50.45
73149;SHT30;61346;48.930;2.266;2022-09-17T22:06:14;13.95;50.59
73149;SHT30;61346;48.930;2.266;2022-09-17T22:08:40;13.92;50.60
73149;SHT30;61346;48.930;2.266;2022-09-17T22:11:09;13.89;50.66
73149;SHT30;61346;48.930;2.266;2022-09-17T22:13:35;13.89;50.78
73149;SHT30;61346;48.930;2.266;2022-09-17T22:16:02;13.88;50.78
73149;SHT30;61346;48.930;2.266;2022-09-17T22:18:31;13.83;50.91
73149;SHT30;61346;48.930;2.266;2022-09-17T22:20:56;13.81;50.91
73149;SHT30;61346;48.930;2.266;2022-09-17T22:23:25;13.78;51.04
73149;SHT30;61346;48.930;2.266;2022-09-17T22:26:02;13.74;51.10
73149;SHT30;61346;48.930;2.266;2022-09-17T22:28:28;13.75;51.15
73149;SHT30;61346;48.930;2.266;2022-09-17T22:30:53;13.71;51.19
73149;SHT30;61346;48.930;2.266;2022-09-17T22:33:19;13.68;51.24
73149;SHT30;61346;48.930;2.266;2022-09-17T22:35:47;13.64;51.34
73149;SHT30;61346;48.930;2.266;2022-09-17T22:38:13;13.64;51.40
73149;SHT30;61346;48.930;2.266;2022-09-17T22:40:38;13.57;51.49
73149;SHT30;61346;48.930;2.266;2022-09-17T22:43:06;13.57;51.53
73149;SHT30;61346;48.930;2.266;2022-09-17T22:45:31;13.55;51.58
73149;SHT30;61346;48.930;2.266;2022-09-17T22:47:57;13.50;51.65
73149;SHT30;61346;48.930;2.266;2022-09-17T22:50:22;13.47;51.74
73149;SHT30;61346;48.930;2.266;2022-09-17T22:52:47;13.46;51.84
73149;SHT30;61346;48.930;2.266;2022-09-17T22:55:13;13.43;51.92
73149;SHT30;61346;48.930;2.266;2022-09-17T22:57:43;13.36;51.93
73149;SHT30;61346;48.930;2.266;2022-09-17T23:00:09;13.33;52.05
73149;SHT30;61346;48.930;2.266;2022-09-17T23:02:36;13.30;52.13
73149;SHT30;61346;48.930;2.266;2022-09-17T23:05:02;13.28;52.19
73149;SHT30;61346;48.930;2.266;2022-09-17T23:07:30;13.24;52.29
73149;SHT30;61346;48.930;2.266;2022-09-17T23:09:56;13.24;52.32
73149;SHT30;61346;48.930;2.266;2022-09-17T23:12:21;13.22;52.37
73149;SHT30;61346;48.930;2.266;2022-09-17T23:14:47;13.19;52.46
73149;SHT30;61346;48.930;2.266;2022-09-17T23:17:15;13.19;52.52
73149;SHT30;61346;48.930;2.266;2022-09-17T23:19:40;13.12;52.61
73149;SHT30;61346;48.930;2.266;2022-09-17T23:22:06;13.13;52.66
73149;SHT30;61346;48.930;2.266;2022-09-17T23:24:32;13.12;52.76
73149;SHT30;61346;48.930;2.266;2022-09-17T23:26:58;13.10;52.84
73149;SHT30;61346;48.930;2.266;2022-09-17T23:29:24;13.09;52.87
73149;SHT30;61346;48.930;2.266;2022-09-17T23:31:49;13.07;52.96
73149;SHT30;61346;48.930;2.266;2022-09-17T23:34:15;13.06;53.05
73149;SHT30;61346;48.930;2.266;2022-09-17T23:36:40;13.02;53.13
73149;SHT30;61346;48.930;2.266;2022-09-17T23:39:10;13.02;53.25
73149;SHT30;61346;48.930;2.266;2022-09-17T23:41:41;13.00;53.30
73149;SHT30;61346;48.930;2.266;2022-09-17T23:44:08;12.96;53.41
73149;SHT30;61346;48.930;2.266;2022-09-17T23:46:34;12.95;53.45
73149;SHT30;61346;48.930;2.266;2022-09-17T23:49:01;12.92;53.39
73149;SHT30;61346;48.930;2.266;2022-09-17T23:51:30;12.92;53.55
73149;SHT30;61346;48.930;2.266;2022-09-17T23:53:58;12.93;53.60
73149;SHT30;61346;48.930;2.266;2022-09-17T23:56:25;12.91;53.69
73149;SHT30;61346;48.930;2.266;2022-09-17T23:58:54;12.91;53.76
